Terminal Aerodrome Forecast
Issued by NWS

Home | Current Version | Previous Version | Text Only | Print | Product List | Glossary On
Versions: 1 2 3 4 5 6 7 8 9 10 11 12 13 14 15 16 17
000
FTUS44 KSJT 232100 AAA
TAFBBD
TAF AMD
KBBD 232156Z 2322/2418 16013KT P6SM SCT080
     FM240000 17010KT P6SM BKN250
     FM241200 17010KT P6SM BKN025=

USA.gov is the U.S. government's official web portal to all federal, state and local government web resources and services.